createdAt,value
2022-12-15T00:00:01.142Z,39.13
2022-12-15T00:02:47.765Z,40.60
2022-12-15T00:05:32.897Z,39.90
2022-12-15T00:08:25.460Z,38.85
2022-12-15T00:11:10.907Z,41.37
2022-12-15T00:13:56.281Z,40.15
2022-12-15T00:16:41.839Z,39.75
2022-12-15T00:19:28.969Z,40.92
2022-12-15T00:22:14.290Z,40.15
2022-12-15T00:24:59.789Z,38.08
2022-12-15T00:27:45.050Z,39.53
2022-12-15T00:30:30.821Z,38.40
2022-12-15T00:33:16.276Z,36.30
2022-12-15T00:36:03.035Z,37.60
2022-12-15T00:38:46.121Z,38.25
2022-12-15T00:41:15.806Z,37.83
2022-12-15T00:43:43.650Z,39.03
2022-12-15T00:46:28.987Z,38.55
2022-12-15T00:48:56.832Z,36.95
2022-12-15T00:51:44.222Z,36.22
2022-12-15T00:54:29.695Z,36.23
2022-12-15T00:57:15.219Z,36.78
2022-12-15T01:00:00.352Z,35.30
2022-12-15T01:02:46.007Z,34.30
2022-12-15T01:05:31.261Z,36.75
2022-12-15T01:08:19.478Z,35.88
2022-12-15T01:11:04.875Z,36.45
2022-12-15T01:13:50.406Z,37.40
2022-12-15T01:16:36.066Z,37.37
2022-12-15T01:19:24.310Z,37.83
2022-12-15T01:21:52.068Z,37.22
2022-12-15T01:24:21.192Z,37.30
2022-12-15T01:26:48.984Z,36.38
2022-12-15T01:29:16.873Z,36.85
2022-12-15T01:31:44.721Z,34.45
2022-12-15T01:34:19.847Z,35.83
2022-12-15T01:36:47.939Z,35.20
2022-12-15T01:39:15.931Z,34.78
2022-12-15T01:41:44.152Z,34.60
2022-12-15T01:44:17.744Z,34.55
2022-12-15T01:46:45.716Z,34.72
2022-12-15T01:49:17.202Z,36.30
2022-12-15T01:51:49.447Z,33.95
2022-12-15T01:54:21.397Z,33.92
2022-12-15T01:56:53.599Z,34.20
2022-12-15T01:59:27.990Z,34.90
2022-12-15T02:01:55.906Z,33.10
2022-12-15T02:04:25.390Z,33.07
2022-12-15T02:06:53.301Z,31.63
2022-12-15T02:09:23.349Z,31.98
2022-12-15T02:12:03.106Z,31.90
2022-12-15T02:14:46.274Z,32.83
2022-12-15T02:17:23.531Z,32.08
2022-12-15T02:20:34.650Z,34.00
2022-12-15T02:23:35.405Z,33.58
2022-12-15T02:26:39.912Z,33.80
2022-12-15T02:29:29.241Z,33.83
2022-12-15T02:32:04.530Z,35.42
2022-12-15T02:34:37.706Z,34.88
2022-12-15T02:37:08.818Z,35.08
2022-12-15T02:39:36.711Z,34.77
2022-12-15T02:42:04.680Z,35.15
2022-12-15T02:44:36.371Z,35.05
2022-12-15T02:47:28.390Z,34.78
2022-12-15T02:50:18.433Z,34.25
2022-12-15T02:53:00.212Z,35.72
2022-12-15T02:55:36.248Z,36.03
2022-12-15T02:58:09.372Z,36.08
2022-12-15T03:00:41.176Z,35.45
2022-12-15T03:03:10.900Z,36.88
2022-12-15T03:05:38.900Z,37.10
2022-12-15T03:08:06.768Z,36.17
2022-12-15T03:10:34.536Z,37.60
2022-12-15T03:13:02.326Z,37.85
2022-12-15T03:15:35.028Z,37.50
2022-12-15T03:18:03.181Z,38.22
2022-12-15T03:20:32.341Z,37.58
2022-12-15T03:23:01.724Z,39.17
2022-12-15T03:25:29.855Z,39.17
2022-12-15T03:27:57.818Z,40.42
2022-12-15T03:30:25.604Z,40.10
2022-12-15T03:32:53.416Z,42.03
2022-12-15T03:35:21.209Z,41.45
2022-12-15T03:37:50.291Z,42.13
2022-12-15T03:40:18.333Z,42.92
2022-12-15T03:42:49.186Z,42.42
2022-12-15T03:45:19.004Z,42.65
2022-12-15T03:47:47.429Z,41.63
2022-12-15T03:50:17.739Z,41.80
2022-12-15T03:52:45.649Z,41.25
2022-12-15T03:55:14.792Z,42.47
2022-12-15T03:57:42.589Z,42.20
2022-12-15T04:00:14.908Z,41.20
2022-12-15T04:02:42.962Z,42.60
2022-12-15T04:05:16.190Z,41.13
2022-12-15T04:07:44.026Z,40.10
2022-12-15T04:10:14.071Z,39.08
2022-12-15T04:12:42.826Z,39.17
2022-12-15T04:15:12.301Z,40.30
2022-12-15T04:17:40.292Z,41.15
2022-12-15T04:20:12.572Z,40.80
2022-12-15T04:22:42.895Z,41.70
2022-12-15T04:25:30.638Z,40.80
2022-12-15T04:28:17.435Z,43.33
2022-12-15T04:31:07.089Z,42.15
2022-12-15T04:33:53.440Z,42.88
2022-12-15T04:36:38.899Z,42.13
2022-12-15T04:39:24.271Z,43.42
2022-12-15T04:42:09.822Z,45.58
2022-12-15T04:44:56.943Z,44.03
2022-12-15T04:47:42.521Z,43.60
2022-12-15T04:50:28.302Z,44.33
2022-12-15T04:53:14.435Z,44.97
2022-12-15T04:55:59.807Z,43.72
2022-12-15T04:58:45.197Z,43.58
2022-12-15T05:01:32.112Z,45.17
2022-12-15T05:04:17.304Z,43.92
2022-12-15T05:07:02.767Z,44.30
2022-12-15T05:09:48.210Z,44.38
2022-12-15T05:12:33.743Z,44.65
2022-12-15T05:15:19.206Z,44.50
2022-12-15T05:18:05.878Z,44.10
2022-12-15T05:20:51.430Z,44.88
2022-12-15T05:23:36.858Z,45.75
2022-12-15T05:26:22.458Z,44.85
2022-12-15T05:29:07.938Z,44.25
2022-12-15T05:31:47.845Z,44.83
2022-12-15T05:34:17.464Z,43.20
2022-12-15T05:36:45.257Z,44.22
2022-12-15T05:39:13.022Z,41.67
2022-12-15T05:41:40.902Z,43.88
2022-12-15T05:44:09.140Z,42.67
2022-12-15T05:46:37.191Z,44.10
2022-12-15T05:49:05.903Z,43.38
2022-12-15T05:51:38.021Z,43.28
2022-12-15T05:54:06.154Z,44.85
2022-12-15T05:56:33.988Z,43.45
2022-12-15T05:59:02.129Z,43.58
2022-12-15T06:01:31.761Z,45.33
2022-12-15T06:03:59.993Z,44.67
2022-12-15T06:06:27.939Z,42.17
2022-12-15T06:08:57.350Z,40.85
2022-12-15T06:11:25.230Z,43.28
2022-12-15T06:13:53.801Z,41.17
2022-12-15T06:16:23.511Z,43.63
2022-12-15T06:18:55.003Z,43.65
2022-12-15T06:21:24.916Z,41.33
2022-12-15T06:23:53.490Z,42.28
2022-12-15T06:26:25.359Z,43.08
2022-12-15T06:28:55.386Z,42.92
2022-12-15T06:31:23.474Z,41.38
2022-12-15T06:33:55.990Z,41.40
2022-12-15T06:36:28.405Z,40.53
2022-12-15T06:38:59.021Z,39.70
2022-12-15T06:41:29.549Z,42.35
2022-12-15T06:43:58.009Z,41.95
2022-12-15T06:46:27.832Z,39.77
2022-12-15T06:48:55.712Z,40.33
2022-12-15T06:51:23.721Z,39.63
2022-12-15T06:53:53.907Z,41.25
2022-12-15T06:56:30.607Z,41.93
2022-12-15T06:59:03.487Z,42.08
2022-12-15T07:01:32.499Z,40.42
2022-12-15T07:04:01.440Z,42.00
2022-12-15T07:06:36.077Z,43.22
2022-12-15T07:09:04.995Z,42.50
2022-12-15T07:11:33.052Z,42.53
2022-12-15T07:14:02.236Z,42.75
2022-12-15T07:16:30.122Z,42.33
2022-12-15T07:18:57.956Z,44.53
2022-12-15T07:21:25.901Z,43.10
2022-12-15T07:23:55.774Z,40.88
2022-12-15T07:26:25.006Z,41.72
2022-12-15T07:28:53.278Z,41.50
2022-12-15T07:31:23.613Z,42.60
2022-12-15T07:33:52.120Z,42.30
2022-12-15T07:36:20.438Z,41.25
2022-12-15T07:38:50.083Z,40.67
2022-12-15T07:41:19.403Z,41.50
2022-12-15T07:43:47.618Z,41.33
2022-12-15T07:46:15.697Z,41.90
2022-12-15T07:48:50.182Z,42.47
2022-12-15T07:51:20.145Z,43.08
2022-12-15T07:53:49.407Z,43.78
2022-12-15T07:56:17.292Z,42.85
2022-12-15T07:58:45.144Z,44.28
2022-12-15T08:01:14.674Z,44.65
2022-12-15T08:03:44.927Z,45.17
2022-12-15T08:06:15.182Z,42.73
2022-12-15T08:08:44.980Z,43.83
2022-12-15T08:11:20.289Z,43.20
2022-12-15T08:14:05.715Z,43.30
2022-12-15T08:16:36.493Z,41.50
2022-12-15T08:19:06.561Z,42.78
2022-12-15T08:21:34.762Z,41.75
2022-12-15T08:24:02.869Z,43.33
2022-12-15T08:26:31.617Z,42.33
2022-12-15T08:29:31.831Z,42.30
2022-12-15T08:31:51.846Z,43.17
2022-12-15T08:34:21.552Z,44.63
2022-12-15T08:36:49.395Z,41.63
2022-12-15T08:39:17.408Z,42.30
2022-12-15T08:41:45.845Z,41.47
2022-12-15T08:44:13.755Z,42.15
2022-12-15T08:46:41.543Z,42.25
2022-12-15T08:49:09.743Z,41.70
2022-12-15T08:51:38.913Z,41.95
2022-12-15T08:54:06.748Z,42.33
2022-12-15T08:56:37.121Z,44.47
2022-12-15T08:59:04.899Z,42.65
2022-12-15T09:01:33.909Z,43.58
2022-12-15T09:04:04.747Z,42.35
2022-12-15T09:06:35.175Z,42.38
2022-12-15T09:09:07.167Z,43.00
2022-12-15T09:11:35.650Z,41.80
2022-12-15T09:14:04.258Z,41.85
2022-12-15T09:16:32.081Z,42.07
2022-12-15T09:19:00.916Z,42.42
2022-12-15T09:21:30.658Z,43.65
2022-12-15T09:24:01.843Z,42.25
2022-12-15T09:26:33.171Z,42.55
2022-12-15T09:29:02.393Z,43.55
2022-12-15T09:31:32.659Z,45.13
2022-12-15T09:34:01.751Z,44.40
2022-12-15T09:36:30.776Z,43.85
2022-12-15T09:38:59.084Z,44.15
2022-12-15T09:41:29.821Z,45.08
2022-12-15T09:44:03.489Z,43.63
2022-12-15T09:46:41.066Z,44.70
2022-12-15T09:49:15.915Z,44.13
2022-12-15T09:51:52.682Z,45.17
2022-12-15T09:54:23.039Z,43.50
2022-12-15T09:56:56.798Z,42.75
2022-12-15T09:59:34.040Z,43.20
2022-12-15T10:02:18.733Z,43.47
2022-12-15T10:04:56.945Z,44.05
2022-12-15T10:07:30.650Z,41.60
2022-12-15T10:09:58.483Z,44.53
2022-12-15T10:12:30.974Z,44.00
2022-12-15T10:15:11.399Z,44.08
2022-12-15T10:17:48.506Z,43.90
2022-12-15T10:20:21.829Z,43.63
2022-12-15T10:22:50.294Z,42.70
2022-12-15T10:25:27.473Z,42.83
2022-12-15T10:28:23.519Z,42.55
2022-12-15T10:30:59.210Z,43.17
2022-12-15T10:33:29.978Z,43.58
2022-12-15T10:35:58.236Z,43.40
2022-12-15T10:38:32.160Z,44.55
2022-12-15T10:41:02.566Z,43.25
2022-12-15T10:43:35.572Z,42.70
2022-12-15T10:46:13.488Z,42.00
2022-12-15T10:48:42.753Z,42.72
2022-12-15T10:51:22.559Z,41.60
2022-12-15T10:53:52.513Z,41.75
2022-12-15T10:56:30.677Z,42.20
2022-12-15T10:59:03.808Z,43.85
2022-12-15T11:01:35.490Z,42.22
2022-12-15T11:04:03.731Z,43.45
2022-12-15T11:06:34.065Z,43.50
2022-12-15T11:09:21.578Z,44.63
2022-12-15T11:12:11.911Z,44.25
2022-12-15T11:14:45.867Z,44.55
2022-12-15T11:17:18.649Z,45.92
2022-12-15T11:19:58.221Z,45.13
2022-12-15T11:22:40.645Z,45.58
2022-12-15T11:25:21.265Z,47.80
2022-12-15T11:27:52.410Z,47.38
2022-12-15T11:30:22.695Z,46.88
2022-12-15T11:32:57.950Z,47.65
2022-12-15T11:35:30.849Z,47.55
2022-12-15T11:38:09.859Z,49.63
2022-12-15T11:40:40.513Z,49.85
2022-12-15T11:43:34.297Z,50.00
2022-12-15T11:46:21.610Z,49.05
2022-12-15T11:49:07.154Z,49.08
2022-12-15T11:51:42.328Z,48.60
2022-12-15T11:54:24.302Z,49.17
2022-12-15T11:56:57.516Z,47.30
2022-12-15T11:59:43.595Z,49.47
2022-12-15T12:02:36.641Z,49.22
2022-12-15T12:05:24.882Z,49.42
2022-12-15T12:07:58.502Z,50.33
2022-12-15T12:10:38.672Z,48.63
2022-12-15T12:13:19.774Z,47.97
2022-12-15T12:15:55.595Z,49.15
2022-12-15T12:18:28.649Z,49.60
2022-12-15T12:21:02.701Z,49.13
2022-12-15T12:23:39.564Z,49.03
2022-12-15T12:26:14.222Z,51.90
2022-12-15T12:31:50.849Z,52.45
2022-12-15T12:34:24.439Z,54.07
2022-12-15T12:36:55.925Z,52.90
2022-12-15T12:39:26.397Z,51.40
2022-12-15T12:42:03.439Z,52.90
2022-12-15T12:44:35.080Z,53.42
2022-12-15T12:47:12.480Z,54.97
2022-12-15T12:49:44.924Z,52.63
2022-12-15T12:52:22.501Z,52.83
2022-12-15T12:54:59.813Z,53.88
2022-12-15T12:57:40.433Z,53.35
2022-12-15T13:00:20.765Z,51.97
2022-12-15T13:03:20.702Z,51.25
2022-12-15T13:05:54.356Z,52.45
2022-12-15T13:08:51.848Z,51.17
2022-12-15T13:12:10.133Z,51.97
2022-12-15T13:14:51.895Z,50.17
2022-12-15T13:17:27.844Z,50.85
2022-12-15T13:20:18.357Z,50.03
2022-12-15T13:22:46.261Z,49.75
2022-12-15T13:25:48.579Z,48.67
2022-12-15T13:28:40.327Z,50.67
2022-12-15T13:31:28.803Z,51.70
2022-12-15T13:34:28.480Z,51.70
2022-12-15T13:36:58.471Z,50.45
2022-12-15T13:40:00.802Z,52.05
2022-12-15T13:42:38.791Z,52.65
2022-12-15T13:45:45.123Z,52.05
2022-12-15T13:48:31.476Z,52.90
2022-12-15T13:51:05.415Z,52.70
2022-12-15T13:53:40.106Z,53.80
2022-12-15T13:56:24.428Z,52.53
2022-12-15T13:59:00.271Z,54.30
2022-12-15T14:01:32.833Z,53.90
2022-12-15T14:04:07.834Z,54.63
2022-12-15T14:06:38.831Z,53.85
2022-12-15T14:09:13.531Z,55.03
2022-12-15T14:14:34.378Z,55.65
2022-12-15T14:17:04.794Z,55.65
2022-12-15T14:19:40.959Z,53.92
2022-12-15T14:22:27.501Z,55.80
2022-12-15T14:25:03.151Z,55.75
2022-12-15T14:27:32.911Z,56.60
2022-12-15T14:30:18.900Z,58.33
2022-12-15T14:32:50.154Z,57.45
2022-12-15T14:35:25.580Z,56.28
2022-12-15T14:37:55.957Z,55.80
2022-12-15T14:40:28.880Z,57.10
2022-12-15T14:42:57.337Z,57.70
2022-12-15T14:45:28.534Z,57.33
2022-12-15T14:48:30.988Z,57.92
2022-12-15T14:50:51.171Z,56.80
2022-12-15T14:53:21.292Z,56.53
2022-12-15T14:55:49.386Z,55.50
2022-12-15T14:58:34.494Z,54.15
2022-12-15T15:01:07.128Z,56.25
2022-12-15T15:03:10.108Z,52.70
2022-12-15T15:03:39.963Z,56.25
2022-12-15T15:06:19.020Z,55.83
2022-12-15T15:08:49.047Z,56.72
2022-12-15T15:11:29.228Z,56.30
2022-12-15T15:13:59.477Z,55.90
2022-12-15T15:16:27.746Z,57.05
2022-12-15T15:18:56.854Z,56.10
2022-12-15T15:21:29.834Z,56.58
2022-12-15T15:24:02.019Z,54.65
2022-12-15T15:26:30.852Z,54.35
2022-12-15T15:28:59.196Z,55.88
2022-12-15T15:31:36.845Z,54.70
2022-12-15T15:34:08.485Z,54.00
2022-12-15T15:36:39.467Z,56.30
2022-12-15T15:39:13.351Z,53.95
2022-12-15T15:41:41.245Z,54.17
2022-12-15T15:44:14.396Z,52.75
2022-12-15T15:46:47.768Z,53.60
2022-12-15T15:49:18.684Z,53.92
2022-12-15T15:51:48.129Z,53.00
2022-12-15T15:54:18.281Z,54.08
2022-12-15T15:56:46.107Z,52.05
2022-12-15T15:59:16.278Z,51.05
2022-12-15T16:01:44.687Z,54.10
2022-12-15T16:04:12.621Z,54.67
2022-12-15T16:06:46.692Z,49.83
2022-12-15T16:09:17.723Z,51.95
2022-12-15T16:11:46.822Z,52.55
2022-12-15T16:14:16.195Z,50.88
2022-12-15T16:16:44.979Z,52.53
2022-12-15T16:19:12.946Z,52.78
2022-12-15T16:21:41.949Z,52.45
2022-12-15T16:24:11.771Z,53.75
2022-12-15T16:26:48.890Z,54.17
2022-12-15T16:29:18.721Z,55.47
2022-12-15T16:31:46.755Z,53.35
2022-12-15T16:34:16.262Z,53.80
2022-12-15T16:36:44.620Z,53.53
2022-12-15T16:39:26.171Z,54.60
2022-12-15T16:41:56.932Z,54.70
2022-12-15T16:44:25.796Z,54.50
2022-12-15T16:46:53.841Z,55.03
2022-12-15T16:49:21.809Z,54.47
2022-12-15T16:51:52.092Z,54.00
2022-12-15T16:54:23.111Z,54.78
2022-12-15T16:56:52.074Z,54.08
2022-12-15T16:59:33.455Z,54.05
2022-12-15T17:02:02.723Z,54.97
2022-12-15T17:04:30.645Z,53.38
2022-12-15T17:06:58.485Z,54.40
2022-12-15T17:09:27.234Z,54.53
2022-12-15T17:11:55.140Z,53.72
2022-12-15T17:14:24.651Z,53.67
2022-12-15T17:16:52.549Z,53.92
2022-12-15T17:19:21.505Z,52.83
2022-12-15T17:21:53.400Z,54.05
2022-12-15T17:24:22.463Z,54.30
2022-12-15T17:26:50.720Z,55.40
2022-12-15T17:29:22.353Z,55.33
2022-12-15T17:31:51.844Z,56.45
2022-12-15T17:34:27.236Z,53.90
2022-12-15T17:36:55.543Z,55.33
2022-12-15T17:39:23.905Z,55.53
2022-12-15T17:42:01.001Z,56.80
2022-12-15T17:44:33.479Z,57.60
2022-12-15T17:47:04.489Z,55.65
2022-12-15T17:49:36.130Z,58.53
2022-12-15T17:52:07.845Z,57.95
2022-12-15T17:54:35.666Z,59.40
2022-12-15T17:57:03.482Z,61.78
2022-12-15T17:59:32.231Z,61.93
2022-12-15T18:02:00.166Z,63.20
2022-12-15T18:04:29.457Z,62.80
2022-12-15T18:07:01.522Z,63.23
2022-12-15T18:09:30.707Z,62.92
2022-12-15T18:11:58.988Z,66.70
2022-12-15T18:14:28.896Z,66.50
2022-12-15T18:16:56.738Z,70.97
2022-12-15T18:19:24.612Z,66.63
2022-12-15T18:21:53.993Z,70.75
2022-12-15T18:24:22.048Z,68.03
2022-12-15T18:26:49.924Z,69.78
2022-12-15T18:29:18.905Z,70.53
2022-12-15T18:31:48.178Z,72.13
2022-12-15T18:34:18.534Z,71.57
2022-12-15T18:36:46.493Z,68.53
2022-12-15T18:39:20.006Z,71.18
2022-12-15T18:41:49.033Z,71.00
2022-12-15T18:44:22.473Z,72.18
2022-12-15T18:46:50.342Z,69.45
2022-12-15T18:49:18.308Z,69.88
2022-12-15T18:51:47.319Z,72.18
2022-12-15T18:54:19.083Z,68.78
2022-12-15T18:56:46.900Z,68.93
2022-12-15T18:59:16.951Z,73.05
2022-12-15T19:01:46.484Z,69.63
2022-12-15T19:04:14.487Z,73.78
2022-12-15T19:06:42.504Z,70.37
2022-12-15T19:09:16.533Z,72.22
2022-12-15T19:12:17.466Z,72.13
2022-12-15T19:14:46.956Z,72.35
2022-12-15T19:17:33.749Z,74.60
2022-12-15T19:20:19.265Z,69.63
2022-12-15T19:22:48.958Z,70.78
2022-12-15T19:25:25.417Z,69.95
2022-12-15T19:27:58.915Z,70.85
2022-12-15T19:30:28.157Z,69.07
2022-12-15T19:32:56.135Z,66.20
2022-12-15T19:35:24.633Z,69.90
2022-12-15T19:37:55.250Z,73.28
2022-12-15T19:40:27.349Z,71.93
2022-12-15T19:42:56.763Z,71.80
2022-12-15T19:45:26.885Z,70.18
2022-12-15T19:47:55.349Z,72.18
2022-12-15T19:50:25.022Z,72.43
2022-12-15T19:52:55.939Z,72.30
2022-12-15T19:55:27.826Z,76.00
2022-12-15T19:57:57.118Z,71.50
2022-12-15T20:00:26.878Z,67.43
2022-12-15T20:02:56.649Z,70.63
2022-12-15T20:05:25.858Z,72.63
2022-12-15T20:07:54.541Z,68.35
2022-12-15T20:10:27.865Z,67.77
2022-12-15T20:13:01.175Z,65.88
2022-12-15T20:15:29.430Z,66.10
2022-12-15T20:17:57.892Z,65.90
2022-12-15T20:20:28.620Z,65.85
2022-12-15T20:22:59.754Z,64.18
2022-12-15T20:25:29.600Z,61.78
2022-12-15T20:28:00.145Z,61.22
2022-12-15T20:30:32.629Z,62.10
2022-12-15T20:33:00.981Z,60.00
2022-12-15T20:35:29.115Z,60.27
2022-12-15T20:37:56.929Z,60.20
2022-12-15T20:40:27.541Z,57.55
2022-12-15T20:42:56.895Z,58.67
2022-12-15T20:45:27.407Z,58.47
2022-12-15T20:47:57.519Z,56.63
2022-12-15T20:50:28.949Z,52.60
2022-12-15T20:52:56.974Z,54.28
2022-12-15T20:55:24.936Z,54.03
2022-12-15T20:57:52.853Z,54.03
2022-12-15T21:00:21.780Z,52.47
2022-12-15T21:02:51.980Z,53.25
2022-12-15T21:05:26.005Z,50.30
2022-12-15T21:07:54.388Z,48.00
2022-12-15T21:10:22.501Z,47.60
2022-12-15T21:12:51.599Z,47.97
2022-12-15T21:15:22.864Z,46.47
2022-12-15T21:18:11.101Z,44.22
2022-12-15T21:20:43.453Z,42.80
2022-12-15T21:23:28.297Z,43.05
2022-12-15T21:25:57.646Z,44.20
2022-12-15T21:28:26.158Z,41.05
2022-12-15T21:30:54.151Z,40.10
2022-12-15T21:33:22.005Z,39.25
2022-12-15T21:35:51.208Z,38.53
2022-12-15T21:38:30.141Z,39.00
2022-12-15T21:41:00.727Z,39.08
2022-12-15T21:43:31.386Z,38.72
2022-12-15T21:45:59.885Z,38.40
2022-12-15T21:48:45.629Z,37.80
2022-12-15T21:51:16.722Z,37.67
2022-12-15T21:53:46.968Z,37.33
2022-12-15T21:56:16.362Z,35.38
2022-12-15T21:58:44.202Z,36.17
2022-12-15T22:01:15.375Z,35.40
2022-12-15T22:03:45.759Z,34.25
2022-12-15T22:06:20.637Z,31.75
2022-12-15T22:08:48.546Z,31.17
2022-12-15T22:11:27.511Z,29.67
2022-12-15T22:13:57.590Z,30.88
2022-12-15T22:16:25.468Z,30.55
2022-12-15T22:18:55.808Z,30.73
2022-12-15T22:21:25.933Z,29.60
2022-12-15T22:23:53.809Z,27.88
2022-12-15T22:26:24.785Z,28.60
2022-12-15T22:28:53.123Z,28.43
2022-12-15T22:31:22.729Z,27.58
2022-12-15T22:33:50.747Z,26.30
2022-12-15T22:36:18.490Z,26.30
2022-12-15T22:38:47.643Z,26.90
2022-12-15T22:41:20.355Z,25.97
2022-12-15T22:43:51.009Z,26.20
2022-12-15T22:46:21.407Z,27.27
2022-12-15T22:48:49.446Z,27.45
2022-12-15T22:51:19.513Z,26.98
2022-12-15T22:53:48.759Z,27.42
2022-12-15T22:56:24.710Z,25.17
2022-12-15T22:58:57.043Z,26.92
2022-12-15T23:01:26.697Z,26.40
2022-12-15T23:03:55.476Z,26.77
2022-12-15T23:06:24.155Z,26.45
2022-12-15T23:08:55.998Z,26.92
2022-12-15T23:11:39.236Z,27.00
2022-12-15T23:14:08.255Z,27.90
2022-12-15T23:16:35.532Z,28.98
2022-12-15T23:19:03.639Z,28.15
2022-12-15T23:21:32.234Z,28.75
2022-12-15T23:24:01.676Z,28.15
2022-12-15T23:26:29.551Z,28.67
2022-12-15T23:28:57.394Z,27.65
2022-12-15T23:31:25.229Z,26.45
2022-12-15T23:33:53.967Z,27.52
2022-12-15T23:36:21.734Z,29.55
2022-12-15T23:38:49.991Z,30.60
2022-12-15T23:41:20.866Z,31.33
2022-12-15T23:43:48.642Z,32.67
2022-12-15T23:46:16.503Z,32.95
2022-12-15T23:48:45.553Z,31.55
2022-12-15T23:51:15.188Z,32.42
2022-12-15T23:53:43.878Z,32.90
2022-12-15T23:56:13.667Z,31.90
2022-12-15T23:58:44.832Z,32.30
